Home > Products > Valid Products > TAF

000
FTUS43 KLMK 251700
TAFBWG
TAF
KBWG 251736Z 2518/2618 24008KT P6SM SCT040
     FM260100 29003KT P6SM SKC
     FM261000 00000KT 3SM BR SKC
     FM261100 00000KT 2SM BR SKC
     FM261300 VRB03KT P6SM SKC=



000
FTUS43 KLMK 251700
TAFLEX
TAF
KLEX 251736Z 2518/2618 23009G16KT P6SM BKN025
     FM251900 25008KT P6SM SCT035
     FM260100 VRB04KT P6SM SKC
     FM260900 34003KT 5SM BR SKC
     FM261300 VRB03KT P6SM SKC=



000
FTUS43 KLMK 251700
TAFSDF
TAF
KSDF 251736Z 2518/2624 25009G16KT P6SM FEW035
     FM260200 VRB04KT P6SM SKC=



000
FTUS43 KLMK 251700
TAFBWG
TAF
KBWG 251736Z 2518/2618 24008KT P6SM SCT040
     FM260100 29003KT P6SM SKC
     FM261000 00000KT 3SM BR SKC
     FM261100 00000KT 2SM BR SKC
     FM261300 VRB03KT P6SM SKC=



000
FTUS43 KLMK 251700
TAFSDF
TAF
KSDF 251736Z 2518/2624 25009G16KT P6SM FEW035
     FM260200 VRB04KT P6SM SKC=



000
FTUS43 KLMK 251700
TAFLEX
TAF
KLEX 251736Z 2518/2618 23009G16KT P6SM BKN025
     FM251900 25008KT P6SM SCT035
     FM260100 VRB04KT P6SM SKC
     FM260900 34003KT 5SM BR SKC
     FM261300 VRB03KT P6SM SKC=



000
FTUS43 KLMK 251600 AAA
TAFLEX
TAF AMD
KLEX 251609Z 2516/2612 22008KT P6SM BKN025
      TEMPO 2516/2520 SCT030 BKN035
     FM252000 27008KT P6SM SCT035
     FM260100 30004KT P6SM SKC
     FM260900 34003KT 5SM BR SKC=



000
FTUS43 KLMK 251400 AAA
TAFSDF
TAF AMD
KSDF 251457Z 2515/2618 23009KT P6SM BKN026
     FM251800 27010KT P6SM SCT035
     FM260200 33004KT P6SM SKC=



000
FTUS43 KLMK 251200 AAA
TAFBWG
TAF AMD
KBWG 251236Z 2513/2612 19005KT P6SM BKN050
     FM252100 29006KT P6SM SCT050
     FM260300 34003KT P6SM SKC
     FM261000 00000KT 3SM BR SKC=



000
FTUS43 KLMK 251100
TAFLEX
TAF
KLEX 251137Z 2512/2612 18005KT P6SM SCT150
     FM251500 21006KT P6SM BKN035
     FM252100 27008KT P6SM SCT035
     FM260100 30004KT P6SM SKC
     FM260900 34003KT 5SM BR SKC=



000
FTUS43 KLMK 251100
TAFBWG
TAF
KBWG 251137Z 2512/2612 18004KT 5SM BR BKN050
     FM251330 19005KT P6SM BKN050
     FM252100 29006KT P6SM SCT050
     FM260300 34003KT P6SM SKC
     FM261000 00000KT 3SM BR SKC=



000
FTUS43 KLMK 251100
TAFSDF
TAF
KSDF 251137Z 2512/2618 15004KT P6SM BKN050
     FM251400 20007KT P6SM BKN035
     FM251900 27010KT P6SM SCT035
     FM260200 33004KT P6SM SKC=



000
FTUS43 KLMK 251100
TAFBWG
TAF
KBWG 251137Z 2512/2612 18004KT 5SM BR BKN050
     FM251330 19005KT P6SM BKN050
     FM252100 29006KT P6SM SCT050
     FM260300 34003KT P6SM SKC
     FM261000 00000KT 3SM BR SKC=



000
FTUS43 KLMK 251100
TAFLEX
TAF
KLEX 251137Z 2512/2612 18005KT P6SM SCT150
     FM251500 21006KT P6SM BKN035
     FM252100 27008KT P6SM SCT035
     FM260100 30004KT P6SM SKC
     FM260900 34003KT 5SM BR SKC=



000
FTUS43 KLMK 251100
TAFSDF
TAF
KSDF 251137Z 2512/2618 15004KT P6SM BKN050
     FM251400 20007KT P6SM BKN035
     FM251900 27010KT P6SM SCT035
     FM260200 33004KT P6SM SKC=



000
FTUS43 KLMK 251000 AAC
TAFBWG
TAF AMD
KBWG 251047Z 2511/2606 00000KT 6SM BR BKN040
     FM251200 21004KT P6SM BKN040
     FM252100 29006KT P6SM SCT040=



000
FTUS43 KLMK 251000 AAC
TAFBWG
TAF AMD
KBWG 251047Z 2511/2606 00000KT 6SM BR BKN040
     FM251200 21004KT P6SM BKN040
     FM252100 29006KT P6SM SCT040=



000
FTUS43 KLMK 250900 AAB
TAFBWG
TAF AMD
KBWG 250911Z 2509/2606 00000KT P6SM SCT040
      TEMPO 2509/2512 4SM BR
     FM251200 21004KT P6SM SCT040
     FM252100 29006KT P6SM SCT040=



000
FTUS43 KLMK 250700 AAA
TAFBWG
TAF AMD
KBWG 250724Z 2507/2606 00000KT 5SM BR FEW200
     FM250800 00000KT 4SM BR FEW020
      TEMPO 2508/2511 2SM BR
     FM251300 21004KT P6SM SCT040
     FM252100 29006KT P6SM SCT040=



000
FTUS43 KLMK 250500
TAFBWG
TAF
KBWG 250529Z 2506/2606 00000KT 6SM BR FEW200
     FM250800 00000KT 4SM BR FEW020
      TEMPO 2508/2511 2SM BR
     FM251300 21004KT P6SM SCT040
     FM252100 29006KT P6SM SCT040=



000
FTUS43 KLMK 250500
TAFSDF
TAF
KSDF 250529Z 2506/2612 17004KT P6SM SCT150
     FM251400 22007KT P6SM BKN035
     FM252000 28009KT P6SM SCT035
     FM260000 33004KT P6SM SKC=



000
FTUS43 KLMK 250500
TAFLEX
TAF
KLEX 250529Z 2506/2606 18003KT P6SM SCT150
     FM251500 21006KT P6SM BKN035
     FM252100 27008KT P6SM SCT035
     FM260100 30004KT P6SM SKC=



000
FTUS43 KLMK 242300
TAFLEX
TAF
KLEX 242331Z 2500/2524 21003KT P6SM SCT035
     FM250900 VRB03KT P6SM FEW020
     FM251500 25006KT P6SM BKN035=



000
FTUS43 KLMK 242300
TAFBWG
TAF
KBWG 242331Z 2500/2524 VRB03KT P6SM FEW200
     FM250900 00000KT 4SM BR FEW020
      TEMPO 2510/2512 2SM BR FEW020
     FM251300 24006KT P6SM SCT040=



000
FTUS43 KLMK 242300
TAFSDF
TAF
KSDF 242331Z 2500/2606 22005KT P6SM SCT150
     FM250900 23003KT P6SM FEW030
     FM251500 26007KT P6SM BKN035=



000
FTUS43 KLMK 241700
TAFLEX
TAF
KLEX 241735Z 2418/2518 26003KT P6SM SCT035
     FM250100 VRB03KT P6SM FEW020
     FM251500 25006KT P6SM BKN035=



000
FTUS43 KLMK 241700
TAFSDF
TAF
KSDF 241735Z 2418/2524 22005KT P6SM SCT040
     FM250100 23003KT P6SM FEW020
     FM251500 26007KT P6SM BKN035=



000
FTUS43 KLMK 241700
TAFBWG
TAF
KBWG 241735Z 2418/2518 VRB05KT P6SM SCT040 SCT200
     FM250100 00000KT P6SM FEW020
     FM251500 24006KT P6SM SCT040=



000
FTUS43 KLMK 241100
TAFSDF
TAF
KSDF 241136Z 2412/2518 VRB03KT P6SM FEW200
     FM241500 VRB04KT P6SM BKN040=



000
FTUS43 KLMK 241100
TAFBWG
TAF
KBWG 241136Z 2412/2512 00000KT P6SM SKC
      TEMPO 2412/2413 1SM BR
     FM241500 VRB03KT P6SM SCT040=



000
FTUS43 KLMK 241100
TAFLEX
TAF
KLEX 241136Z 2412/2512 VRB03KT P6SM FEW250
      TEMPO 2412/2413 5SM BR
     FM241900 VRB03KT P6SM BKN050=



000
FTUS43 KLMK 240500
TAFBWG
TAF
KBWG 240520Z 2406/2506 00000KT P6SM SCT250
     FM240900 00000KT 4SM BR FEW150
     FM241300 VRB03KT P6SM SCT040=



000
FTUS43 KLMK 240500
TAFSDF
TAF
KSDF 240520Z 2406/2512 VRB03KT P6SM SCT250
     FM241700 VRB03KT P6SM SCT040=



000
FTUS43 KLMK 240500
TAFLEX
TAF
KLEX 240520Z 2406/2506 VRB03KT P6SM SCT200
     FM241900 VRB03KT P6SM SCT050=



000
FTUS43 KLMK 232300
TAFSDF
TAF
KSDF 232320Z 2400/2506 24004KT P6SM BKN200
     FM240900 17003KT P6SM BKN150
     FM241400 23004KT P6SM SCT090=



000
FTUS43 KLMK 232300
TAFLEX
TAF
KLEX 232320Z 2400/2424 VRB03KT P6SM BKN200
     FM240900 VRB03KT P6SM SCT150
     FM241300 17004KT P6SM BKN110=



000
FTUS43 KLMK 232300
TAFBWG
TAF
KBWG 232320Z 2400/2424 VRB03KT P6SM BKN200
     FM240800 00000KT 4SM BR BKN150
     FM241300 32003KT P6SM SCT150
     FM241800 29004KT P6SM BKN070=



000
FTUS43 KLMK 231700
TAFLEX
TAF
KLEX 231727Z 2318/2418 04004KT P6SM SCT250
     FM240900 14003KT 4SM BR SCT150
     FM241300 17004KT P6SM SCT150=



000
FTUS43 KLMK 231700
TAFSDF
TAF
KSDF 231727Z 2318/2424 13006KT P6SM SCT250
     FM240900 17003KT P6SM BKN150
     FM241400 23004KT P6SM SCT150=



000
FTUS43 KLMK 231700
TAFBWG
TAF
KBWG 231727Z 2318/2418 06004KT P6SM SCT250
     FM240800 00000KT 4SM BR BKN150
     FM241300 32003KT P6SM SCT150=



000
FTUS43 KLMK 231100
TAFLEX
TAF
KLEX 231120Z 2312/2412 04005KT P6SM BKN025
     FM231300 06004KT P6SM SCT250=



000
FTUS43 KLMK 231100
TAFSDF
TAF
KSDF 231120Z 2312/2418 00000KT P6SM SKC
     FM231500 VRB04KT P6SM SCT250=



000
FTUS43 KLMK 231100
TAFBWG
TAF
KBWG 231120Z 2312/2412 00000KT 3SM BR SKC
      TEMPO 2312/2313 1/2SM FG VV002
     FM231300 06004KT P6SM SCT250=



000
FTUS43 KLMK 230900 AAB
TAFBWG
TAF AMD
KBWG 230959Z 2310/2406 VRB03KT 3SM BR SKC
      TEMPO 2310/2313 1 1/2SM BR
     FM231300 06004KT P6SM SCT250=



000
FTUS43 KLMK 230900 AAB
TAFBWG
TAF AMD
KBWG 230959Z 2310/2406 VRB03KT 3SM BR SKC
      TEMPO 2310/2313 1 1/2SM BR
     FM231300 06004KT P6SM SCT250=



000
FTUS43 KLMK 230700 AAA
TAFBWG
TAF AMD
KBWG 230717Z 2307/2406 VRB03KT 4SM BR SKC
      TEMPO 2307/2311 2SM BR
     FM231300 06004KT P6SM SCT250=



000
FTUS43 KLMK 230500
TAFLEX
TAF
KLEX 230521Z 2306/2406 06005KT P6SM BKN025
     FM231300 06004KT P6SM SCT250=



000
FTUS43 KLMK 230500
TAFBWG
TAF
KBWG 230521Z 2306/2406 VRB03KT P6SM SKC
     FM231000 00000KT 6SM BR SKC
      TEMPO 2310/2313 3SM BR
     FM231300 06004KT P6SM SCT250=



000
FTUS43 KLMK 230500
TAFSDF
TAF
KSDF 230521Z 2306/2412 10006KT P6SM SKC
     FM231000 00000KT P6SM SKC
     FM231500 VRB04KT P6SM SCT250=



000
FTUS43 KLMK 230300 AAA
TAFLEX
TAF AMD
KLEX 230318Z 2303/2324 03004KT P6SM BKN030
     FM230600 VRB03KT P6SM SKC
     FM230900 VRB03KT 4SM BR SKC
     FM231300 06004KT P6SM SCT250=



000
FTUS43 KLMK 222300
TAFBWG
TAF
KBWG 222322Z 2300/2324 03004KT P6SM SKC
     FM231000 00000KT 3SM BR SKC
     FM231300 06004KT P6SM SCT250=



000
FTUS43 KLMK 222300
TAFSDF
TAF
KSDF 222322Z 2300/2406 02006KT P6SM SKC
     FM231000 00000KT P6SM SKC
     FM231500 08003KT P6SM SCT250=



000
FTUS43 KLMK 222300
TAFLEX
TAF
KLEX 222322Z 2300/2324 05004KT P6SM BKN035
     FM230300 03004KT P6SM SKC
     FM230900 VRB03KT 4SM BR SKC
     FM231300 06004KT P6SM SCT250=



    US Dept of Commerce
    National Oceanic and Atmospheric Administration
    National Weather Service
    1325 East West Highway
    Silver Spring, MD 20910
    Page Author: NWS Internet Services Team
Disclaimer
Information Quality
Credits
Glossary
Privacy Policy
Freedom of Information Act (FOIA)
About Us
Career Opportunities